Time;durP1;ratioP1;P1;durP2;ratioP2;P2;SDS_P1;SDS_P2;PMS_P1;PMS_P2;Temp;Humidity;BMP_temperature;BMP_pressure;BME280_temperature;BME280_humidity;BME280_pressure;Samples;Min_cycle;Max_cycle;Signal;HPM_P1;HPM_P2
2021/03/09 00:02:08;;;;;;;73.97;31.13;;;1.40;99.90;;;;;;4987420;28;20142;-75
2021/03/09 00:04:34;;;;;;;81.90;35.95;;;1.50;99.90;;;;;;4984916;28;20404;-74
2021/03/09 00:07:00;;;;;;;79.90;34.92;;;1.50;99.90;;;;;;5000374;28;20050;-73
2021/03/09 00:09:27;;;;;;;95.38;39.55;;;1.60;99.90;;;;;;4968412;28;20109;-75
2021/03/09 00:11:53;;;;;;;79.18;34.92;;;1.60;99.90;;;;;;4971990;28;20051;-74
2021/03/09 00:14:20;;;;;;;80.22;35.28;;;1.60;99.90;;;;;;4968797;28;20053;-74
2021/03/09 00:16:46;;;;;;;72.00;32.45;;;1.60;99.90;;;;;;4968500;28;20051;-75
2021/03/09 00:19:12;;;;;;;78.22;35.30;;;1.70;99.90;;;;;;4970309;28;20784;-75
2021/03/09 00:21:39;;;;;;;80.82;33.95;;;1.70;99.90;;;;;;4967438;28;20061;-74
2021/03/09 00:24:05;;;;;;;87.90;32.55;;;1.60;99.90;;;;;;4967251;28;20061;-74
2021/03/09 00:26:32;;;;;;;79.22;33.92;;;1.60;99.90;;;;;;4952277;28;20042;-75
2021/03/09 00:28:58;;;;;;;73.05;31.50;;;1.60;99.90;;;;;;4984546;28;20055;-74
2021/03/09 00:31:24;;;;;;;71.68;31.45;;;1.70;99.90;;;;;;4968062;28;20530;-76
2021/03/09 00:33:51;;;;;;;72.63;31.13;;;1.60;99.90;;;;;;5000800;28;20062;-74
2021/03/09 00:36:17;;;;;;;73.63;30.77;;;1.60;99.90;;;;;;5015269;28;20046;-74
2021/03/09 00:38:43;;;;;;;77.53;30.15;;;1.60;99.90;;;;;;4951692;28;20050;-74
2021/03/09 00:41:10;;;;;;;60.92;30.02;;;1.70;99.90;;;;;;4968894;28;20054;-74
2021/03/09 00:43:36;;;;;;;66.80;29.95;;;1.60;99.90;;;;;;4967507;28;20047;-74
2021/03/09 00:46:03;;;;;;;66.65;31.95;;;1.60;99.90;;;;;;4975707;28;20074;-74
2021/03/09 00:48:39;;;;;;;70.90;32.50;;;1.60;99.90;;;;;;5004151;28;20058;-75
2021/03/09 00:51:07;;;;;;;71.55;30.13;;;1.70;99.90;;;;;;4985692;28;20125;-73
2021/03/09 00:53:34;;;;;;;63.97;29.95;;;1.60;99.90;;;;;;4987613;28;20058;-74
2021/03/09 00:56:00;;;;;;;74.15;31.75;;;1.70;99.90;;;;;;4987148;28;20058;-74
2021/03/09 00:58:26;;;;;;;75.22;31.42;;;1.70;99.90;;;;;;4970716;28;20047;-73
2021/03/09 01:00:54;;;;;;;67.05;31.27;;;1.70;99.90;;;;;;4964193;28;20516;-74
2021/03/09 01:03:20;;;;;;;73.65;30.20;;;1.70;99.90;;;;;;4964048;28;20141;-73
2021/03/09 01:05:47;;;;;;;71.35;32.05;;;1.70;99.90;;;;;;4933836;28;20054;-74
2021/03/09 01:08:13;;;;;;;70.35;31.77;;;1.80;99.90;;;;;;4949389;28;20066;-73
2021/03/09 01:10:40;;;;;;;75.55;32.88;;;1.80;99.90;;;;;;4994571;28;20407;-74
2021/03/09 01:13:07;;;;;;;69.07;31.13;;;1.90;99.90;;;;;;4970476;28;20047;-74
2021/03/09 01:15:33;;;;;;;70.13;32.78;;;1.90;99.90;;;;;;4987315;28;20042;-73
2021/03/09 01:18:15;;;;;;;72.07;31.08;;;1.90;99.90;;;;;;4987288;28;20062;-73
2021/03/09 01:20:41;;;;;;;68.63;30.45;;;2.00;99.90;;;;;;5002814;28;20141;-74
2021/03/09 01:23:07;;;;;;;74.63;31.73;;;2.00;99.90;;;;;;5003257;28;20070;-74
2021/03/09 01:25:33;;;;;;;67.93;31.20;;;2.10;99.90;;;;;;4986735;28;20061;-74
2021/03/09 01:28:00;;;;;;;65.47;29.65;;;2.00;99.90;;;;;;4986970;28;20246;-75
2021/03/09 01:30:26;;;;;;;70.40;29.27;;;2.00;99.90;;;;;;4983048;28;20074;-74
2021/03/09 01:32:52;;;;;;;79.25;32.40;;;2.00;99.90;;;;;;4969125;28;20055;-74
2021/03/09 01:35:19;;;;;;;71.57;32.50;;;2.00;99.90;;;;;;4968101;28;20081;-74
2021/03/09 01:37:45;;;;;;;75.75;31.13;;;1.90;99.90;;;;;;4947514;29;20053;-73
2021/03/09 01:40:12;;;;;;;72.82;32.20;;;1.90;99.90;;;;;;4955369;28;20424;-74
2021/03/09 01:42:38;;;;;;;78.38;33.05;;;1.90;99.90;;;;;;4974028;28;20050;-75
2021/03/09 01:45:07;;;;;;;73.28;32.85;;;2.00;99.90;;;;;;4965886;28;20057;-74
2021/03/09 01:47:36;;;;;;;72.20;30.25;;;2.00;99.90;;;;;;4968519;28;20478;-74
2021/03/09 01:50:03;;;;;;;80.22;31.60;;;2.00;99.90;;;;;;4954098;28;20050;-74
2021/03/09 01:52:30;;;;;;;80.88;32.83;;;1.90;99.90;;;;;;4967732;28;20054;-74
2021/03/09 01:54:57;;;;;;;78.65;31.77;;;1.90;99.90;;;;;;4965930;28;20062;-74
2021/03/09 01:57:23;;;;;;;77.55;32.72;;;1.90;99.90;;;;;;4966499;28;20665;-74
2021/03/09 01:59:50;;;;;;;73.63;31.38;;;1.90;99.90;;;;;;4982993;28;20043;-74
2021/03/09 02:02:17;;;;;;;77.20;32.65;;;1.80;99.90;;;;;;4965884;28;20145;-74
2021/03/09 02:04:46;;;;;;;76.43;30.45;;;1.90;99.90;;;;;;4949969;28;20047;-73
2021/03/09 02:07:12;;;;;;;79.93;31.92;;;1.80;99.90;;;;;;4969877;28;20104;-73
2021/03/09 02:09:39;;;;;;;76.25;32.80;;;1.80;99.90;;;;;;4984964;28;20068;-74
2021/03/09 02:12:28;;;;;;;84.53;32.03;;;1.80;99.90;;;;;;4965754;28;20054;-74
2021/03/09 02:15:24;;;;;;;76.70;31.45;;;1.70;99.90;;;;;;4958142;28;20051;-74
2021/03/09 02:17:54;;;;;;;84.53;31.67;;;1.70;99.90;;;;;;4962603;28;20113;-74
2021/03/09 02:21:01;;;;;;;75.55;32.38;;;1.80;99.90;;;;;;4969589;28;20051;-75
2021/03/09 02:24:13;;;;;;;78.43;31.00;;;1.80;99.90;;;;;;4965867;28;20061;-73
2021/03/09 02:27:09;;;;;;;81.88;31.02;;;1.80;99.90;;;;;;4964953;28;20057;-74
2021/03/09 02:29:42;;;;;;;78.80;34.10;;;1.90;99.90;;;;;;4926659;28;20047;-74
2021/03/09 02:32:24;;;;;;;84.03;31.23;;;2.00;99.90;;;;;;4949923;28;20644;-73
2021/03/09 02:34:57;;;;;;;74.07;30.33;;;2.00;99.90;;;;;;4981001;28;20419;-74
2021/03/09 02:37:28;;;;;;;64.43;29.20;;;2.00;99.90;;;;;;4948475;28;20042;-74
2021/03/09 02:39:55;;;;;;;75.75;30.35;;;2.00;99.90;;;;;;4951393;28;20047;-74
2021/03/09 02:42:25;;;;;;;70.70;31.00;;;2.00;99.90;;;;;;4980803;28;20045;-75
2021/03/09 02:44:55;;;;;;;78.75;31.67;;;2.00;99.90;;;;;;4981935;28;20070;-75
2021/03/09 02:47:23;;;;;;;84.20;32.95;;;1.90;99.90;;;;;;4964772;28;20045;-75
2021/03/09 02:49:52;;;;;;;81.68;32.85;;;1.90;99.90;;;;;;4981906;28;20059;-74
2021/03/09 02:52:21;;;;;;;82.03;35.28;;;1.90;99.90;;;;;;4996663;28;20047;-74
2021/03/09 02:54:49;;;;;;;75.72;30.45;;;1.90;99.90;;;;;;4997718;28;20046;-73
2021/03/09 02:57:17;;;;;;;88.68;32.53;;;1.80;99.90;;;;;;4965400;28;20081;-74
2021/03/09 02:59:44;;;;;;;84.00;35.58;;;1.80;99.90;;;;;;5014918;28;20085;-74
2021/03/09 03:02:13;;;;;;;86.28;33.58;;;1.80;99.90;;;;;;4984226;28;20050;-73
2021/03/09 03:04:46;;;;;;;93.07;34.65;;;1.90;99.90;;;;;;4982279;28;20125;-74
2021/03/09 03:07:14;;;;;;;86.70;34.30;;;1.80;99.90;;;;;;4965566;28;20420;-74
2021/03/09 03:09:41;;;;;;;97.13;35.17;;;1.80;99.90;;;;;;4961861;28;20555;-74
2021/03/09 03:12:11;;;;;;;103.85;36.95;;;1.80;99.90;;;;;;4969549;28;20105;-74
2021/03/09 03:14:39;;;;;;;97.78;36.00;;;1.80;99.90;;;;;;4948159;28;20448;-74
2021/03/09 03:17:08;;;;;;;94.93;35.28;;;1.70;99.90;;;;;;4971958;28;20054;-74
2021/03/09 03:19:50;;;;;;;88.57;33.55;;;1.70;99.90;;;;;;4965372;28;20206;-74
2021/03/09 03:22:18;;;;;;;100.75;37.50;;;1.60;99.90;;;;;;4995390;28;20050;-74
2021/03/09 03:24:46;;;;;;;98.68;37.03;;;1.70;99.90;;;;;;4980517;28;20073;-75
2021/03/09 03:27:18;;;;;;;88.03;34.45;;;1.60;99.90;;;;;;4946541;28;20047;-75
2021/03/09 03:29:47;;;;;;;89.97;36.85;;;1.60;99.90;;;;;;4966793;28;20051;-75
2021/03/09 03:32:15;;;;;;;88.25;36.03;;;1.70;99.90;;;;;;4963036;28;20165;-74
2021/03/09 03:34:44;;;;;;;99.00;36.88;;;1.70;99.90;;;;;;4949309;28;20081;-74
2021/03/09 03:37:13;;;;;;;98.43;35.95;;;1.70;99.90;;;;;;4980468;28;20073;-75
2021/03/09 03:39:39;;;;;;;100.47;37.83;;;1.70;99.90;;;;;;4949375;28;20287;-75
2021/03/09 03:42:07;;;;;;;100.75;36.47;;;1.70;99.90;;;;;;4988856;28;20109;-75
2021/03/09 03:44:34;;;;;;;102.15;37.47;;;1.70;99.90;;;;;;4981561;28;20507;-75
2021/03/09 03:47:00;;;;;;;113.53;37.05;;;1.70;99.90;;;;;;4965019;28;20043;-75
2021/03/09 03:49:28;;;;;;;107.82;36.65;;;1.70;99.90;;;;;;4981340;28;20078;-75
2021/03/09 03:52:06;;;;;;;106.07;37.17;;;1.70;99.90;;;;;;4964687;28;20055;-74
2021/03/09 03:54:53;;;;;;;103.32;38.13;;;1.60;99.90;;;;;;4965213;28;20055;-74
2021/03/09 03:57:34;;;;;;;108.30;40.47;;;1.70;99.90;;;;;;4965199;28;20050;-74
2021/03/09 04:00:05;;;;;;;113.95;39.72;;;1.70;99.90;;;;;;4965887;28;20061;-74
2021/03/09 04:02:35;;;;;;;105.60;38.65;;;1.70;99.90;;;;;;4964987;28;20059;-74
2021/03/09 04:05:05;;;;;;;107.80;40.10;;;1.70;99.90;;;;;;4965899;28;20054;-76
2021/03/09 04:07:33;;;;;;;119.32;39.83;;;1.70;99.90;;;;;;4985560;28;20054;-75
2021/03/09 04:10:00;;;;;;;124.38;39.20;;;1.70;99.90;;;;;;4963726;28;20043;-74
2021/03/09 04:12:29;;;;;;;125.45;40.50;;;1.70;99.90;;;;;;4979697;28;20078;-74
2021/03/09 04:14:59;;;;;;;113.32;38.05;;;1.70;99.90;;;;;;4961836;28;20059;-75
2021/03/09 04:17:27;;;;;;;123.32;40.67;;;1.70;99.90;;;;;;4972780;28;20137;-75
2021/03/09 04:19:55;;;;;;;120.85;40.95;;;1.70;99.90;;;;;;4997354;28;20055;-74
2021/03/09 04:22:24;;;;;;;121.95;40.92;;;1.80;99.90;;;;;;4983963;28;20085;-75
2021/03/09 04:24:51;;;;;;;111.05;39.95;;;1.80;99.90;;;;;;4984880;28;20512;-77
2021/03/09 04:27:22;;;;;;;112.72;41.55;;;1.80;99.90;;;;;;5018749;28;20518;-75
2021/03/09 04:29:56;;;;;;;118.30;41.90;;;1.70;99.90;;;;;;4969641;28;20046;-75
2021/03/09 04:32:23;;;;;;;134.17;45.00;;;1.70;99.90;;;;;;4965507;28;20043;-75
2021/03/09 04:34:50;;;;;;;127.70;42.53;;;1.70;99.90;;;;;;4967422;28;20337;-75
2021/03/09 04:37:35;;;;;;;136.68;43.38;;;1.70;99.90;;;;;;4970035;28;20077;-75
2021/03/09 04:40:03;;;;;;;124.82;43.42;;;1.80;99.90;;;;;;4988933;28;20646;-75
2021/03/09 04:42:30;;;;;;;123.55;41.00;;;1.70;99.90;;;;;;4935451;28;20170;-75
2021/03/09 04:44:57;;;;;;;124.97;42.97;;;1.70;99.90;;;;;;4983028;28;20053;-75
2021/03/09 04:47:24;;;;;;;133.35;41.80;;;1.80;99.90;;;;;;4967534;28;20167;-75
2021/03/09 04:49:55;;;;;;;135.48;43.35;;;1.70;99.90;;;;;;4951598;28;20059;-74
2021/03/09 04:52:24;;;;;;;134.82;45.15;;;1.70;99.90;;;;;;4966633;28;20054;-75
2021/03/09 04:54:51;;;;;;;128.60;42.67;;;1.70;99.90;;;;;;4966891;28;20065;-75
2021/03/09 04:57:17;;;;;;;126.75;39.65;;;1.70;99.90;;;;;;4971772;28;20702;-74
2021/03/09 04:59:44;;;;;;;122.70;43.17;;;1.60;99.90;;;;;;4967560;28;20062;-74
2021/03/09 05:02:11;;;;;;;122.63;41.85;;;1.60;99.90;;;;;;4982970;28;20059;-74
2021/03/09 05:04:37;;;;;;;95.88;30.30;;;1.70;99.90;;;;;;4979477;28;20047;-74
2021/03/09 05:07:03;;;;;;;106.82;35.40;;;1.70;99.90;;;;;;4966503;28;20260;-74
2021/03/09 05:09:32;;;;;;;91.43;32.05;;;1.60;99.90;;;;;;4976042;28;20259;-74
2021/03/09 05:11:59;;;;;;;95.35;32.50;;;1.70;99.90;;;;;;4976412;28;20645;-75
2021/03/09 05:14:25;;;;;;;91.57;33.20;;;1.70;99.90;;;;;;4965451;28;20051;-74
2021/03/09 05:16:51;;;;;;;96.57;32.03;;;1.70;99.90;;;;;;4961722;28;20046;-75
2021/03/09 05:19:18;;;;;;;90.63;31.92;;;1.70;99.90;;;;;;4983440;28;20058;-75
2021/03/09 05:21:44;;;;;;;93.53;33.70;;;1.70;99.90;;;;;;4943973;28;20488;-75
2021/03/09 05:24:10;;;;;;;95.72;32.72;;;1.70;99.90;;;;;;4965821;28;20044;-75
2021/03/09 05:26:37;;;;;;;104.63;32.28;;;1.60;99.90;;;;;;4966225;28;20235;-76
2021/03/09 05:29:03;;;;;;;105.57;32.47;;;1.60;99.90;;;;;;4967004;28;20145;-76
2021/03/09 05:31:29;;;;;;;97.50;31.30;;;1.60;99.90;;;;;;4982418;28;20046;-75
2021/03/09 05:33:56;;;;;;;91.55;30.73;;;1.60;99.90;;;;;;4982724;28;20503;-76
2021/03/09 05:36:22;;;;;;;88.72;32.05;;;1.70;99.90;;;;;;4964435;28;20046;-76
2021/03/09 05:38:48;;;;;;;86.82;30.55;;;1.60;99.90;;;;;;4949151;28;20415;-75
2021/03/09 05:41:14;;;;;;;91.13;31.48;;;1.60;99.90;;;;;;4990323;28;20145;-75
2021/03/09 05:43:41;;;;;;;101.55;32.60;;;1.60;99.90;;;;;;4961625;28;20058;-75
2021/03/09 05:46:08;;;;;;;99.38;32.10;;;1.60;99.90;;;;;;4947917;28;20272;-75
2021/03/09 05:48:37;;;;;;;90.05;32.53;;;1.60;99.90;;;;;;4948527;29;20602;-75
2021/03/09 05:51:03;;;;;;;95.20;28.13;;;1.60;99.90;;;;;;4961140;28;20062;-76
2021/03/09 05:53:30;;;;;;;93.55;31.23;;;1.60;99.90;;;;;;4980324;28;20066;-75
2021/03/09 05:55:56;;;;;;;91.38;30.70;;;1.60;99.90;;;;;;4965824;28;20073;-75
2021/03/09 05:58:22;;;;;;;82.03;30.73;;;1.60;99.90;;;;;;4965788;28;20078;-75
2021/03/09 06:00:49;;;;;;;83.47;29.63;;;1.60;99.90;;;;;;4950218;28;20042;-75
2021/03/09 06:03:15;;;;;;;75.30;24.63;;;1.60;99.90;;;;;;4963078;28;20042;-75
2021/03/09 06:05:41;;;;;;;79.32;28.38;;;1.60;99.90;;;;;;4982072;28;20050;-75
2021/03/09 06:08:08;;;;;;;86.18;30.10;;;1.60;99.90;;;;;;4963345;28;20055;-75
2021/03/09 06:10:36;;;;;;;91.60;31.15;;;1.50;99.90;;;;;;4968785;28;20149;-75
2021/03/09 06:13:02;;;;;;;77.00;28.35;;;1.50;99.90;;;;;;4957366;28;20381;-75
2021/03/09 06:15:29;;;;;;;98.47;29.67;;;1.50;99.90;;;;;;4967822;28;20046;-74
2021/03/09 06:17:57;;;;;;;81.88;28.23;;;1.60;99.90;;;;;;4978810;28;20062;-75
2021/03/09 06:20:26;;;;;;;93.78;29.63;;;1.60;99.90;;;;;;4964982;28;20053;-75
2021/03/09 06:23:00;;;;;;;90.28;27.80;;;1.60;99.90;;;;;;4966120;28;20578;-75
2021/03/09 06:25:34;;;;;;;88.55;29.02;;;1.60;99.90;;;;;;4965239;28;20054;-75
2021/03/09 06:28:10;;;;;;;85.22;29.90;;;1.60;99.90;;;;;;4965644;28;20102;-75
2021/03/09 06:30:38;;;;;;;89.07;31.15;;;1.60;99.90;;;;;;4949418;28;20141;-76
2021/03/09 06:33:06;;;;;;;93.05;29.55;;;1.60;99.90;;;;;;4948210;28;20050;-75
2021/03/09 06:35:46;;;;;;;89.45;30.52;;;1.60;99.90;;;;;;4964955;28;20083;-75
2021/03/09 06:38:17;;;;;;;89.65;30.40;;;1.60;99.90;;;;;;4958698;28;20047;-76
2021/03/09 06:41:03;;;;;;;89.22;29.25;;;1.60;99.90;;;;;;4947112;28;21614;-75
2021/03/09 06:43:30;;;;;;;91.25;30.65;;;1.60;99.90;;;;;;4976153;28;20154;-75
2021/03/09 06:46:14;;;;;;;80.50;31.02;;;1.60;99.90;;;;;;4967333;28;20118;-76
2021/03/09 06:48:41;;;;;;;81.75;30.27;;;1.60;99.90;;;;;;4968309;28;20319;-76
2021/03/09 06:51:30;;;;;;;72.72;29.10;;;1.50;99.90;;;;;;4970415;28;20055;-75
2021/03/09 06:53:57;;;;;;;76.47;30.70;;;1.50;99.90;;;;;;4964732;28;20106;-75
2021/03/09 06:56:26;;;;;;;86.07;29.88;;;1.60;99.90;;;;;;5002958;28;20054;-74
2021/03/09 06:58:53;;;;;;;83.88;32.25;;;1.60;99.90;;;;;;4993128;28;20058;-74
2021/03/09 07:01:20;;;;;;;81.30;30.52;;;1.60;99.90;;;;;;4985204;28;20061;-74
2021/03/09 07:03:46;;;;;;;83.22;32.72;;;1.50;99.90;;;;;;5000129;28;20050;-74
2021/03/09 07:06:13;;;;;;;73.75;31.60;;;1.50;99.90;;;;;;4986056;28;20052;-74
2021/03/09 07:08:39;;;;;;;81.22;31.20;;;1.50;99.90;;;;;;5016947;28;20065;-73
2021/03/09 07:11:08;;;;;;;76.88;30.88;;;1.60;99.90;;;;;;4984068;28;20118;-74
2021/03/09 07:13:38;;;;;;;76.10;29.63;;;1.60;99.90;;;;;;4973216;28;20563;-74
2021/03/09 07:16:04;;;;;;;73.25;29.30;;;1.60;99.90;;;;;;4981166;28;20042;-74
2021/03/09 07:18:34;;;;;;;73.07;28.67;;;1.50;99.90;;;;;;4981323;28;20074;-74
2021/03/09 07:21:01;;;;;;;90.63;33.58;;;1.60;99.90;;;;;;4962248;28;20049;-73
2021/03/09 07:23:31;;;;;;;92.28;35.13;;;1.50;99.90;;;;;;4957951;28;20219;-73
2021/03/09 07:26:05;;;;;;;83.20;31.67;;;1.60;99.90;;;;;;4988811;28;20061;-72
2021/03/09 07:28:37;;;;;;;74.13;30.67;;;1.50;99.90;;;;;;4977614;28;20279;-74
2021/03/09 07:31:06;;;;;;;81.65;32.83;;;1.50;99.90;;;;;;4976907;28;20057;-72
2021/03/09 07:33:33;;;;;;;84.78;34.20;;;1.60;99.90;;;;;;4976969;28;20129;-73
2021/03/09 07:36:03;;;;;;;82.18;32.58;;;1.50;99.90;;;;;;4974411;28;20464;-74
2021/03/09 07:38:31;;;;;;;75.30;31.58;;;1.50;99.90;;;;;;4976246;28;20047;-74
2021/03/09 07:40:58;;;;;;;59.92;23.33;;;1.50;99.90;;;;;;4975664;28;20054;-74
2021/03/09 07:43:26;;;;;;;80.78;32.05;;;1.50;99.90;;;;;;4975351;28;20093;-75
2021/03/09 07:45:53;;;;;;;80.13;32.00;;;1.50;99.90;;;;;;4973687;28;20047;-74
2021/03/09 07:48:22;;;;;;;84.32;32.50;;;1.40;99.90;;;;;;4973732;28;20045;-73
2021/03/09 07:50:48;;;;;;;83.47;31.38;;;1.50;99.90;;;;;;4973543;28;20524;-72
2021/03/09 07:53:16;;;;;;;85.80;30.92;;;1.50;99.90;;;;;;4968536;28;20525;-73
2021/03/09 07:55:45;;;;;;;76.68;31.08;;;1.50;99.90;;;;;;4965671;28;20035;-72
2021/03/09 07:58:15;;;;;;;76.28;29.13;;;1.50;99.90;;;;;;4969916;28;20031;-74
2021/03/09 08:01:00;;;;;;;83.20;31.02;;;1.50;99.90;;;;;;4974864;28;20057;-74
2021/03/09 08:03:33;;;;;;;81.40;31.20;;;1.50;99.90;;;;;;4959181;28;20555;-74
2021/03/09 08:06:06;;;;;;;74.40;30.77;;;1.50;99.90;;;;;;4969183;28;20054;-74
2021/03/09 08:08:53;;;;;;;83.22;30.45;;;1.50;99.90;;;;;;4970697;28;20536;-74
2021/03/09 08:11:19;;;;;;;75.60;26.58;;;1.50;99.90;;;;;;4968674;28;20046;-75
2021/03/09 08:13:49;;;;;;;75.18;26.08;;;1.50;99.90;;;;;;4984185;28;20047;-74
2021/03/09 08:16:24;;;;;;;67.72;27.63;;;1.40;99.90;;;;;;4968388;28;20670;-75
2021/03/09 08:18:51;;;;;;;76.20;29.27;;;1.40;99.90;;;;;;4970382;28;20147;-74
2021/03/09 08:21:18;;;;;;;76.68;27.40;;;1.50;99.90;;;;;;4968154;28;20046;-75
2021/03/09 08:23:45;;;;;;;77.65;27.98;;;1.50;99.90;;;;;;4952001;28;20785;-73
2021/03/09 08:26:14;;;;;;;79.57;29.15;;;1.40;99.90;;;;;;4958871;28;20053;-74
2021/03/09 08:28:52;;;;;;;77.72;27.77;;;1.40;99.90;;;;;;4972577;28;20058;-74
2021/03/09 08:31:18;;;;;;;72.70;28.75;;;1.50;99.90;;;;;;4977425;28;20055;-74
2021/03/09 08:34:13;;;;;;;66.03;27.02;;;1.50;99.90;;;;;;4968079;28;20062;-73
2021/03/09 08:36:41;;;;;;;75.25;28.45;;;1.60;99.90;;;;;;4948634;28;20057;-73
2021/03/09 08:39:13;;;;;;;81.25;29.65;;;1.50;99.90;;;;;;4967998;28;20058;-74
2021/03/09 08:41:42;;;;;;;87.25;28.95;;;1.50;99.90;;;;;;4958962;28;20050;-73
2021/03/09 08:44:21;;;;;;;75.53;28.00;;;1.60;99.90;;;;;;4968723;28;20077;-73
2021/03/09 08:46:55;;;;;;;88.63;30.60;;;1.60;99.90;;;;;;4967501;28;20058;-74
2021/03/09 08:49:34;;;;;;;77.35;30.67;;;1.50;99.90;;;;;;4967488;28;20058;-74
2021/03/09 08:52:11;;;;;;;75.75;28.50;;;1.50;99.90;;;;;;4968420;28;20125;-74
2021/03/09 08:54:48;;;;;;;79.55;27.58;;;1.60;99.90;;;;;;4966013;28;20618;-74
2021/03/09 08:57:18;;;;;;;84.85;31.67;;;1.50;99.90;;;;;;4966260;28;20759;-75
2021/03/09 08:59:49;;;;;;;77.90;30.30;;;1.50;99.90;;;;;;4983178;28;20081;-74
2021/03/09 09:02:16;;;;;;;85.72;30.02;;;1.60;99.90;;;;;;4968370;28;20062;-75
2021/03/09 09:04:46;;;;;;;74.57;27.58;;;1.60;99.90;;;;;;4960320;28;20051;-75
2021/03/09 09:07:18;;;;;;;82.28;27.30;;;1.60;99.90;;;;;;4965559;28;20055;-74
2021/03/09 09:09:44;;;;;;;76.00;27.90;;;1.60;99.90;;;;;;4967696;28;20077;-74
2021/03/09 09:12:29;;;;;;;78.50;28.02;;;1.60;99.90;;;;;;4966099;28;20053;-75
2021/03/09 09:15:23;;;;;;;77.18;28.65;;;1.60;99.90;;;;;;4961682;28;20303;-76
2021/03/09 09:17:56;;;;;;;76.45;26.63;;;1.60;99.90;;;;;;4950607;28;20061;-76
2021/03/09 09:20:39;;;;;;;78.25;31.02;;;1.70;99.90;;;;;;4951441;28;20059;-76
2021/03/09 09:23:06;;;;;;;71.43;28.05;;;1.60;99.90;;;;;;4967109;28;20085;-74
2021/03/09 09:25:43;;;;;;;71.72;28.60;;;1.70;99.90;;;;;;4983121;28;20054;-75
2021/03/09 09:28:24;;;;;;;76.90;27.75;;;1.60;99.90;;;;;;4966854;28;20403;-73
2021/03/09 09:30:51;;;;;;;84.75;31.45;;;1.60;99.90;;;;;;4961776;28;20059;-76
2021/03/09 09:33:31;;;;;;;78.57;30.67;;;1.60;99.90;;;;;;4950865;28;20409;-74
2021/03/09 09:35:57;;;;;;;84.38;29.95;;;1.60;99.90;;;;;;4964843;28;20055;-73
2021/03/09 09:38:24;;;;;;;86.25;29.65;;;1.60;99.90;;;;;;4968260;28;20113;-74
2021/03/09 09:40:56;;;;;;;82.50;30.00;;;1.50;99.90;;;;;;4965972;28;20054;-76
2021/03/09 09:43:27;;;;;;;88.20;30.15;;;1.50;99.90;;;;;;4966200;28;20070;-75
2021/03/09 09:46:07;;;;;;;86.43;32.90;;;1.50;99.90;;;;;;4950012;28;20201;-75
2021/03/09 09:48:38;;;;;;;91.32;33.05;;;1.50;99.90;;;;;;4979998;28;20051;-76
2021/03/09 09:51:16;;;;;;;81.85;30.60;;;1.50;99.90;;;;;;4966100;28;20053;-76
2021/03/09 09:53:44;;;;;;;91.65;32.63;;;1.60;99.90;;;;;;4959901;28;20496;-75
2021/03/09 09:56:17;;;;;;;94.70;35.25;;;1.50;99.90;;;;;;4965707;28;20142;-76
2021/03/09 09:58:55;;;;;;;99.93;34.47;;;1.60;99.90;;;;;;4966245;28;20200;-75
2021/03/09 10:01:40;;;;;;;93.20;33.63;;;1.60;99.90;;;;;;4947338;28;20047;-76
2021/03/09 10:04:09;;;;;;;92.72;35.20;;;1.60;99.90;;;;;;4968802;28;20062;-76
2021/03/09 10:07:04;;;;;;;92.43;33.15;;;1.60;99.90;;;;;;4965285;28;20050;-75
2021/03/09 10:09:30;;;;;;;94.30;34.67;;;1.60;99.90;;;;;;4965071;28;20508;-76
2021/03/09 10:11:59;;;;;;;88.70;32.65;;;1.70;99.90;;;;;;4961150;28;20054;-76
2021/03/09 10:14:35;;;;;;;99.25;38.97;;;1.70;99.90;;;;;;4950295;28;20084;-75
2021/03/09 10:17:02;;;;;;;91.57;37.10;;;1.70;99.90;;;;;;4972871;28;20138;-75
2021/03/09 10:19:38;;;;;;;86.70;33.88;;;1.80;99.90;;;;;;4975264;28;20077;-76
2021/03/09 10:22:15;;;;;;;;;;;1.80;99.90;;;;;;4984497;28;20050;-76
2021/03/09 10:24:42;;;;;;;93.65;35.15;;;1.80;99.90;;;;;;4970372;28;19922;-76
2021/03/09 10:27:14;;;;;;;78.22;32.95;;;1.80;99.90;;;;;;4953593;28;20053;-76
2021/03/09 10:29:40;;;;;;;99.07;37.13;;;1.80;99.90;;;;;;5002952;28;20060;-77
2021/03/09 10:32:14;;;;;;;93.47;36.40;;;1.80;99.90;;;;;;4986952;28;20042;-76
2021/03/09 10:34:51;;;;;;;101.88;39.65;;;1.90;99.90;;;;;;4968003;28;20462;-76
2021/03/09 10:37:31;;;;;;;97.68;37.35;;;1.80;99.90;;;;;;4965286;28;20508;-77
2021/03/09 10:39:58;;;;;;;90.78;35.35;;;1.80;99.90;;;;;;4951742;28;20047;-75
2021/03/09 10:42:34;;;;;;;104.07;38.97;;;1.70;99.90;;;;;;4964411;28;20058;-75
2021/03/09 10:45:16;;;;;;;99.53;36.00;;;1.70;99.90;;;;;;4949909;28;20054;-76
2021/03/09 10:47:43;;;;;;;111.90;40.65;;;1.70;99.90;;;;;;4966489;28;20158;-76
2021/03/09 10:50:10;;;;;;;106.28;40.83;;;1.70;99.90;;;;;;4981883;28;20058;-77
2021/03/09 10:52:36;;;;;;;100.47;37.70;;;1.80;99.90;;;;;;4950626;28;20296;-76
2021/03/09 10:55:04;;;;;;;110.47;43.22;;;1.90;99.90;;;;;;4966127;28;20058;-76
2021/03/09 10:57:31;;;;;;;98.15;39.10;;;2.00;99.90;;;;;;4967052;28;20058;-77
2021/03/09 10:59:57;;;;;;;85.40;38.67;;;1.90;99.90;;;;;;4970114;28;20059;-76
2021/03/09 11:02:23;;;;;;;95.50;38.55;;;1.90;99.90;;;;;;4965654;28;20050;-76
2021/03/09 11:04:50;;;;;;;92.25;37.38;;;1.90;99.90;;;;;;4968146;28;20528;-76
2021/03/09 11:07:16;;;;;;;93.88;37.72;;;2.00;99.90;;;;;;4965225;28;20055;-76
2021/03/09 11:09:43;;;;;;;82.95;37.15;;;1.90;99.90;;;;;;4946433;28;20047;-76
2021/03/09 11:12:09;;;;;;;93.18;37.75;;;2.00;99.90;;;;;;4947198;28;20458;-76
2021/03/09 11:14:39;;;;;;;87.07;38.38;;;2.00;99.90;;;;;;4964535;28;20055;-75
2021/03/09 11:17:06;;;;;;;90.32;38.35;;;2.00;99.90;;;;;;4964899;28;20055;-75
2021/03/09 11:19:32;;;;;;;91.47;37.45;;;2.00;99.90;;;;;;4965704;28;20083;-74
2021/03/09 11:22:00;;;;;;;83.90;35.88;;;2.00;99.90;;;;;;4995459;28;20061;-75
2021/03/09 11:24:27;;;;;;;89.18;35.28;;;2.00;99.90;;;;;;4948353;28;20452;-76
2021/03/09 11:26:59;;;;;;;75.35;35.22;;;2.00;99.90;;;;;;4963938;28;20073;-75
2021/03/09 11:29:26;;;;;;;85.70;36.28;;;2.00;99.90;;;;;;4964366;28;20050;-76
2021/03/09 11:31:53;;;;;;;95.18;38.45;;;2.00;99.90;;;;;;4963909;28;20050;-75
2021/03/09 11:34:20;;;;;;;87.65;36.08;;;2.00;99.90;;;;;;4950913;28;20039;-76
2021/03/09 11:36:46;;;;;;;74.38;33.38;;;2.00;99.90;;;;;;4949584;28;20649;-76
2021/03/09 11:39:13;;;;;;;81.13;35.78;;;2.10;99.90;;;;;;4969104;28;20050;-77
2021/03/09 11:41:40;;;;;;;83.25;36.42;;;2.10;99.90;;;;;;4967910;28;20058;-76
2021/03/09 11:44:07;;;;;;;77.40;36.30;;;2.20;99.90;;;;;;4984652;28;20057;-74
2021/03/09 11:46:33;;;;;;;77.82;35.72;;;2.20;99.90;;;;;;4984768;28;20431;-76
2021/03/09 11:49:00;;;;;;;83.65;38.38;;;2.20;99.90;;;;;;4952652;28;20055;-78
2021/03/09 11:51:27;;;;;;;88.05;38.92;;;2.20;99.90;;;;;;4960474;28;20531;-76
2021/03/09 11:53:54;;;;;;;85.95;37.85;;;2.20;99.90;;;;;;4968887;28;20217;-74
2021/03/09 11:56:20;;;;;;;86.88;38.83;;;2.20;99.90;;;;;;4968496;28;20042;-76
2021/03/09 11:58:47;;;;;;;86.15;38.40;;;2.20;99.90;;;;;;4968841;28;20065;-76
2021/03/09 12:01:14;;;;;;;87.03;38.25;;;2.20;99.90;;;;;;4974302;28;20054;-74
2021/03/09 12:03:41;;;;;;;81.65;38.25;;;2.10;99.90;;;;;;4991214;28;20138;-74
2021/03/09 12:06:07;;;;;;;87.13;38.40;;;2.20;99.90;;;;;;4950268;28;20420;-74
2021/03/09 12:08:34;;;;;;;82.00;39.25;;;2.20;99.90;;;;;;4967462;28;20137;-74
2021/03/09 12:11:00;;;;;;;92.43;39.25;;;2.20;99.90;;;;;;4969018;28;20085;-74
2021/03/09 12:13:26;;;;;;;89.57;42.22;;;2.20;99.90;;;;;;4968499;28;20050;-73
2021/03/09 12:15:53;;;;;;;97.80;44.13;;;2.20;99.90;;;;;;4968363;28;20587;-74
2021/03/09 12:18:19;;;;;;;111.75;51.80;;;2.20;99.90;;;;;;4983919;28;20051;-75
2021/03/09 12:20:46;;;;;;;97.50;43.55;;;2.20;99.90;;;;;;4967571;28;20388;-77
2021/03/09 12:23:12;;;;;;;87.93;39.05;;;2.30;99.90;;;;;;4968531;28;20061;-75
2021/03/09 12:25:40;;;;;;;91.28;38.30;;;2.30;99.90;;;;;;4949844;28;20053;-76
2021/03/09 12:28:06;;;;;;;78.95;37.95;;;2.40;99.90;;;;;;4967333;28;20043;-76
2021/03/09 12:30:33;;;;;;;79.40;38.03;;;2.40;99.90;;;;;;4962716;28;20053;-75
2021/03/09 12:33:00;;;;;;;79.47;36.58;;;2.40;99.90;;;;;;4975680;28;20058;-76
2021/03/09 12:35:26;;;;;;;90.13;39.85;;;2.30;99.90;;;;;;4968999;28;20105;-75
2021/03/09 12:37:53;;;;;;;88.72;41.97;;;2.30;99.90;;;;;;4963011;28;20051;-75
2021/03/09 12:40:19;;;;;;;82.40;37.45;;;2.30;99.90;;;;;;4942893;28;20046;-75
2021/03/09 12:42:45;;;;;;;88.55;42.50;;;2.30;99.90;;;;;;4979053;28;20039;-76
2021/03/09 12:45:12;;;;;;;79.25;36.75;;;2.30;99.90;;;;;;4984176;28;20171;-75
2021/03/09 12:47:38;;;;;;;85.68;40.88;;;2.20;99.90;;;;;;4986884;28;20613;-75
2021/03/09 12:50:06;;;;;;;83.38;38.13;;;2.30;99.90;;;;;;5003415;28;20058;-75